Time;durP1;ratioP1;P1;durP2;ratioP2;P2;SDS_P1;SDS_P2;PMS_P1;PMS_P2;Temp;Humidity;BMP_temperature;BMP_pressure;BME280_temperature;BME280_humidity;BME280_pressure;Samples;Min_cycle;Max_cycle;Signal;HPM_P1;HPM_P2
2023/09/27 00:01:35;;;;;;;8.03;7.13;;;;;;;15.44;79.63;101385.25;5035608;28;20230;-78
2023/09/27 00:04:04;;;;;;;7.60;6.80;;;;;;;15.39;79.38;101383.06;5035585;28;20230;-77
2023/09/27 00:06:33;;;;;;;8.20;6.70;;;;;;;15.42;79.55;101374.63;5035263;28;20673;-77
2023/09/27 00:09:04;;;;;;;7.90;7.10;;;;;;;15.41;79.56;101358.63;5035736;28;20265;-77
2023/09/27 00:11:32;;;;;;;10.33;6.80;;;;;;;15.41;79.36;101359.44;5035801;28;20199;-77
2023/09/27 00:14:01;;;;;;;8.27;7.40;;;;;;;15.39;80.34;101352.53;5035371;28;20227;-77
2023/09/27 00:16:29;;;;;;;8.17;7.37;;;;;;;15.37;80.08;101351.91;5035349;28;20206;-77
2023/09/27 00:18:58;;;;;;;8.47;7.00;;;;;;;15.39;79.01;101364.19;5035620;28;20210;-77
2023/09/27 00:21:26;;;;;;;8.80;7.43;;;;;;;15.41;78.70;101374.81;5037192;28;20230;-75
2023/09/27 00:23:55;;;;;;;8.43;7.63;;;;;;;15.33;79.63;101372.97;5046136;28;20238;-76
2023/09/27 00:26:25;;;;;;;9.00;7.87;;;;;;;15.23;80.43;101377.75;5047755;28;20218;-75
2023/09/27 00:28:53;;;;;;;9.23;7.53;;;;;;;15.22;80.68;101359.88;5048884;28;20252;-75
2023/09/27 00:31:22;;;;;;;9.20;7.63;;;;;;;15.31;79.72;101358.00;5050692;28;20203;-75
2023/09/27 00:33:51;;;;;;;7.93;7.20;;;;;;;15.34;80.11;101363.88;5035109;28;20239;-77
2023/09/27 00:36:19;;;;;;;11.20;8.27;;;;;;;15.33;79.64;101362.19;5035077;28;20265;-77
2023/09/27 00:38:48;;;;;;;9.50;8.57;;;;;;;15.22;80.84;101362.56;5034646;28;20660;-77
2023/09/27 00:41:16;;;;;;;8.70;7.90;;;;;;;15.31;80.24;101364.22;5034480;28;20776;-77
2023/09/27 00:43:46;;;;;;;9.07;8.17;;;;;;;15.26;79.60;101361.22;5034584;28;20227;-77
2023/09/27 00:46:17;;;;;;;8.73;7.57;;;;;;;15.35;80.09;101381.72;5034710;28;20287;-77
2023/09/27 00:48:46;;;;;;;10.87;7.93;;;;;;;15.28;79.32;101386.16;5034810;28;20199;-77
2023/09/27 00:51:15;;;;;;;8.83;7.80;;;;;;;15.12;80.31;101386.22;5034419;28;20740;-77
2023/09/27 00:53:48;;;;;;;8.00;7.20;;;;;;;15.22;80.40;101382.31;5034677;28;20229;-77
2023/09/27 00:56:17;;;;;;;9.53;7.33;;;;;;;15.37;79.82;101384.28;5034684;28;20194;-77
2023/09/27 00:58:48;;;;;;;9.67;7.67;;;;;;;15.08;80.09;101368.69;5034623;28;20313;-77
2023/09/27 01:01:17;;;;;;;8.13;7.33;;;;;;;14.98;82.26;101341.09;5034685;28;20317;-77
2023/09/27 01:03:46;;;;;;;8.40;7.43;;;;;;;14.97;81.63;101324.06;5034410;28;20253;-77
2023/09/27 01:06:15;;;;;;;10.83;7.73;;;;;;;15.04;81.46;101330.44;5034445;28;20245;-77
2023/09/27 01:08:43;;;;;;;7.73;7.03;;;;;;;15.19;80.60;101338.66;5034585;28;20217;-77
2023/09/27 01:11:12;;;;;;;7.93;7.20;;;;;;;15.23;80.64;101340.00;5034265;28;20203;-77
2023/09/27 01:13:41;;;;;;;8.13;7.00;;;;;;;15.26;80.59;101336.94;5034231;28;20226;-77
2023/09/27 01:16:10;;;;;;;7.67;7.03;;;;;;;15.16;79.61;101344.41;5034526;28;20242;-77
2023/09/27 01:18:39;;;;;;;9.83;6.63;;;;;;;15.05;80.84;101342.09;5034199;28;20213;-77
2023/09/27 01:21:08;;;;;;;8.07;7.10;;;;;;;14.93;81.43;101346.19;5034112;28;20236;-77
2023/09/27 01:23:40;;;;;;;8.07;7.20;;;;;;;14.82;83.30;101342.00;5033948;28;20265;-77
2023/09/27 01:26:11;;;;;;;7.23;6.53;;;;;;;14.76;82.47;101348.06;5033823;28;20560;-77
2023/09/27 01:28:42;;;;;;;7.97;7.17;;;;;;;14.68;83.68;101340.88;5033827;28;20642;-77
2023/09/27 01:31:11;;;;;;;8.10;7.30;;;;;;;14.65;83.08;101335.81;5034155;28;20197;-77
2023/09/27 01:33:40;;;;;;;6.93;6.33;;;;;;;14.80;82.80;101337.78;5033873;28;20231;-77
2023/09/27 01:36:09;;;;;;;7.30;6.60;;;;;;;14.93;81.98;101348.88;5033946;28;20232;-77
2023/09/27 01:38:39;;;;;;;7.93;7.13;;;;;;;14.88;81.72;101340.47;5033899;28;20229;-77
2023/09/27 01:41:07;;;;;;;8.37;7.07;;;;;;;14.96;80.99;101335.06;5033474;28;20645;-77
2023/09/27 01:43:36;;;;;;;7.40;6.70;;;;;;;15.02;80.69;101340.59;5033737;28;20277;-77
2023/09/27 01:46:04;;;;;;;7.30;6.60;;;;;;;14.93;81.19;101344.31;5033756;28;20206;-77
2023/09/27 01:48:33;;;;;;;8.07;7.27;;;;;;;14.79;80.35;101341.50;5033418;28;20740;-77
2023/09/27 01:51:01;;;;;;;7.90;7.10;;;;;;;14.69;80.85;101342.53;5033673;28;20207;-77
2023/09/27 01:53:30;;;;;;;7.67;6.87;;;;;;;14.56;81.51;101342.22;5033595;28;20231;-77
2023/09/27 01:56:02;;;;;;;9.43;6.80;;;;;;;14.56;82.11;101336.84;5033017;28;20206;-77
2023/09/27 01:58:31;;;;;;;9.10;7.53;;;;;;;14.50;81.81;101340.22;5033671;28;20198;-77
2023/09/27 02:00:59;;;;;;;7.23;6.63;;;;;;;14.45;81.62;101341.75;5033503;28;20317;-77
2023/09/27 02:03:28;;;;;;;6.93;6.33;;;;;;;14.54;81.68;101346.13;5033182;28;20226;-77
2023/09/27 02:05:58;;;;;;;7.60;6.73;;;;;;;14.59;81.26;101352.66;5033496;28;20212;-77
2023/09/27 02:08:27;;;;;;;7.63;6.93;;;;;;;14.60;79.66;101354.34;5033537;28;20191;-77
2023/09/27 02:10:56;;;;;;;7.40;6.50;;;;;;;14.60;79.39;101346.25;5033415;28;20199;-77
2023/09/27 02:13:25;;;;;;;7.90;7.03;;;;;;;14.56;79.98;101342.22;5033333;28;20706;-77
2023/09/27 02:15:55;;;;;;;7.97;7.17;;;;;;;14.48;79.90;101349.50;5033625;28;20301;-77
2023/09/27 02:18:24;;;;;;;7.27;6.50;;;;;;;14.45;80.83;101353.34;5033393;28;20215;-77
2023/09/27 02:20:53;;;;;;;7.57;6.87;;;;;;;14.44;79.64;101349.00;5032984;28;20672;-77
2023/09/27 02:23:21;;;;;;;7.47;6.73;;;;;;;14.41;80.20;101354.72;5033140;28;20289;-77
2023/09/27 02:25:58;;;;;;;8.33;6.43;;;;;;;14.29;80.41;101350.66;5033357;28;20217;-77
2023/09/27 02:28:28;;;;;;;7.80;6.23;;;;;;;14.28;80.65;101350.84;5033349;28;20214;-77
2023/09/27 02:30:58;;;;;;;7.80;6.60;;;;;;;14.27;80.61;101350.00;5032955;28;20564;-77
2023/09/27 02:33:27;;;;;;;8.97;6.93;;;;;;;14.40;79.55;101357.56;5033171;28;20350;-77
2023/09/27 02:35:56;;;;;;;6.40;5.87;;;;;;;14.35;79.21;101366.16;5032856;28;20210;-77
2023/09/27 02:38:25;;;;;;;7.63;6.93;;;;;;;14.41;79.00;101365.50;5033194;28;20214;-77
2023/09/27 02:40:54;;;;;;;7.80;6.70;;;;;;;14.49;78.93;101368.16;5032776;28;20568;-77
2023/09/27 02:43:23;;;;;;;7.63;6.93;;;;;;;14.39;79.32;101363.97;5032910;28;20232;-76
2023/09/27 02:45:52;;;;;;;6.73;6.10;;;;;;;14.18;79.60;101359.06;5032177;28;20301;-77
2023/09/27 02:48:21;;;;;;;6.83;6.13;;;;;;;14.13;80.67;101361.44;5032853;28;20213;-76
2023/09/27 02:50:50;;;;;;;7.37;6.60;;;;;;;14.14;80.28;101355.06;5031508;28;20207;-76
2023/09/27 02:53:18;;;;;;;6.73;6.13;;;;;;;14.09;80.08;101352.84;5032006;28;20314;-76
2023/09/27 02:55:47;;;;;;;8.27;6.70;;;;;;;13.91;80.95;101349.47;5032458;28;20589;-76
2023/09/27 02:58:16;;;;;;;7.20;6.60;;;;;;;13.80;81.79;101348.97;5032752;28;20213;-76
2023/09/27 03:00:44;;;;;;;7.50;6.70;;;;;;;13.79;81.82;101352.66;5032990;28;20242;-75
2023/09/27 03:03:14;;;;;;;6.87;6.27;;;;;;;13.83;81.14;101354.00;5032833;28;20262;-75
2023/09/27 03:05:43;;;;;;;7.40;6.80;;;;;;;13.78;81.71;101359.03;5033204;28;20289;-75
2023/09/27 03:08:12;;;;;;;7.37;6.70;;;;;;;13.79;81.20;101363.44;5036037;28;20210;-76
2023/09/27 03:10:41;;;;;;;8.17;6.90;;;;;;;13.73;82.10;101369.47;5036823;28;20202;-76
2023/09/27 03:13:11;;;;;;;6.97;6.03;;;;;;;13.69;81.57;101359.06;5038209;28;20230;-75
2023/09/27 03:15:40;;;;;;;7.63;6.90;;;;;;;13.66;82.31;101370.13;5037500;28;20669;-75
2023/09/27 03:18:09;;;;;;;6.23;5.63;;;;;;;13.68;81.68;101368.13;5037568;28;20214;-76
2023/09/27 03:20:39;;;;;;;7.50;6.50;;;;;;;13.76;81.47;101375.38;5037819;28;20297;-75
2023/09/27 03:23:07;;;;;;;9.13;6.93;;;;;;;13.81;81.15;101361.41;5037314;28;20725;-75
2023/09/27 03:25:36;;;;;;;6.90;6.20;;;;;;;13.86;80.36;101367.97;5038037;28;20195;-75
2023/09/27 03:28:05;;;;;;;6.77;6.07;;;;;;;13.87;80.06;101371.53;5036505;28;20219;-75
2023/09/27 03:30:34;;;;;;;7.57;5.87;;;;;;;13.77;80.02;101376.22;5036270;28;20297;-76
2023/09/27 03:33:02;;;;;;;8.13;6.37;;;;;;;13.64;81.03;101385.59;5036159;28;20246;-76
2023/09/27 03:35:31;;;;;;;6.80;6.10;;;;;;;13.75;80.42;101403.28;5036121;28;20211;-76
2023/09/27 03:38:01;;;;;;;7.53;6.67;;;;;;;13.84;79.97;101393.34;5036195;28;20209;-76
2023/09/27 03:40:30;;;;;;;7.90;7.10;;;;;;;13.77;80.00;101403.13;5036117;28;20214;-76
2023/09/27 03:42:58;;;;;;;7.20;6.50;;;;;;;13.70;81.12;101401.06;5035612;28;20787;-76
2023/09/27 03:45:27;;;;;;;6.60;6.00;;;;;;;13.67;80.65;101398.72;5035971;28;20253;-76
2023/09/27 03:47:55;;;;;;;7.17;6.20;;;;;;;13.67;80.32;101389.78;5035958;28;20374;-76
2023/09/27 03:50:24;;;;;;;6.73;6.03;;;;;;;13.69;79.86;101402.09;5035893;28;20356;-76
2023/09/27 03:52:57;;;;;;;6.83;6.23;;;;;;;13.59;80.23;101404.09;5035777;28;20203;-76
2023/09/27 03:55:28;;;;;;;7.40;6.53;;;;;;;13.65;80.06;101400.75;5035849;28;20252;-76
2023/09/27 03:57:56;;;;;;;11.53;6.90;;;;;;;13.60;80.40;101403.06;5035784;28;20350;-76
2023/09/27 04:00:25;;;;;;;6.97;5.97;;;;;;;13.71;79.56;101407.31;5035458;28;20680;-76
2023/09/27 04:02:54;;;;;;;7.17;6.47;;;;;;;13.61;79.53;101402.06;5035246;28;20238;-76
2023/09/27 04:05:26;;;;;;;7.30;6.27;;;;;;;13.52;80.93;101396.84;5035486;28;20211;-76
2023/09/27 04:07:54;;;;;;;7.90;7.10;;;;;;;13.46;81.77;101395.63;5035157;28;20227;-76
2023/09/27 04:10:24;;;;;;;8.73;7.67;;;;;;;13.47;83.21;101391.94;5035427;28;20207;-76
2023/09/27 04:12:54;;;;;;;11.10;8.97;;;;;;;13.50;82.78;101391.59;5035417;28;20207;-76
2023/09/27 04:15:23;;;;;;;9.37;8.47;;;;;;;13.47;83.12;101391.94;5035468;28;20257;-76
2023/09/27 04:17:51;;;;;;;8.33;7.53;;;;;;;13.51;83.17;101390.59;5035004;28;20207;-76
2023/09/27 04:20:21;;;;;;;8.50;7.70;;;;;;;13.47;83.77;101391.09;5034651;28;20242;-76
2023/09/27 04:22:50;;;;;;;12.10;8.20;;;;;;;13.41;82.65;101395.28;5034989;28;20657;-76
2023/09/27 04:25:19;;;;;;;8.97;8.03;;;;;;;13.43;83.53;101395.09;5035000;28;20653;-76
2023/09/27 04:27:50;;;;;;;8.93;8.10;;;;;;;13.52;82.78;101403.06;5035224;28;20214;-76
2023/09/27 04:30:22;;;;;;;9.37;8.50;;;;;;;13.58;82.12;101409.63;5035223;28;20195;-76
2023/09/27 04:32:52;;;;;;;9.83;8.13;;;;;;;13.56;82.26;101408.97;5035100;28;20183;-76
2023/09/27 04:35:21;;;;;;;10.27;8.33;;;;;;;13.53;81.75;101406.56;5034733;28;20260;-76
2023/09/27 04:37:51;;;;;;;8.67;7.87;;;;;;;13.51;82.30;101409.44;5034668;28;20623;-76
2023/09/27 04:40:19;;;;;;;9.17;8.03;;;;;;;13.51;82.17;101420.19;5034697;28;20210;-76
2023/09/27 04:42:48;;;;;;;9.77;8.20;;;;;;;13.44;82.47;101418.31;5034747;28;20227;-76
2023/09/27 04:45:17;;;;;;;8.20;7.43;;;;;;;13.35;82.78;101420.16;5034862;28;20210;-76
2023/09/27 04:47:47;;;;;;;8.47;7.57;;;;;;;13.43;82.41;101422.84;5034486;28;20531;-76
2023/09/27 04:50:16;;;;;;;8.30;7.33;;;;;;;13.42;82.70;101421.19;5034832;28;20195;-76
2023/09/27 04:52:45;;;;;;;8.37;7.53;;;;;;;13.47;81.87;101415.28;5034761;28;20297;-76
2023/09/27 04:55:14;;;;;;;9.03;7.90;;;;;;;13.39;82.36;101416.09;5034654;28;20230;-76
2023/09/27 04:57:43;;;;;;;9.43;7.77;;;;;;;13.37;82.11;101396.59;5034605;28;20206;-76
2023/09/27 05:00:18;;;;;;;10.33;8.90;;;;;;;13.32;83.58;101398.94;5034619;28;20230;-76
2023/09/27 05:02:48;;;;;;;9.70;8.70;;;;;;;13.30;83.73;101400.94;5034516;28;20276;-76
2023/09/27 05:05:17;;;;;;;9.73;8.73;;;;;;;13.27;84.51;101406.66;5034251;28;20195;-76
2023/09/27 05:07:45;;;;;;;10.03;9.10;;;;;;;13.19;84.65;101414.66;5034525;28;20230;-76
2023/09/27 05:10:14;;;;;;;13.10;8.50;;;;;;;13.13;84.87;101418.00;5034376;28;20304;-76
2023/09/27 05:12:43;;;;;;;13.33;9.33;;;;;;;13.17;85.02;101417.53;5034410;28;20213;-76
2023/09/27 05:15:12;;;;;;;10.33;8.77;;;;;;;13.26;83.96;101422.94;5034085;28;20257;-76
2023/09/27 05:17:40;;;;;;;11.97;8.40;;;;;;;13.19;83.98;101420.03;5034649;28;20211;-76
2023/09/27 05:20:11;;;;;;;9.93;8.20;;;;;;;13.19;83.81;101420.03;5033929;28;20260;-76
2023/09/27 05:22:41;;;;;;;8.73;7.90;;;;;;;13.23;83.84;101431.31;5034059;28;20211;-76
2023/09/27 05:25:10;;;;;;;10.17;9.03;;;;;;;13.29;83.59;101436.91;5033936;28;20708;-76
2023/09/27 05:27:39;;;;;;;8.93;7.97;;;;;;;13.27;82.96;101438.06;5034156;28;20207;-76
2023/09/27 05:30:08;;;;;;;9.37;8.03;;;;;;;13.29;83.73;101436.09;5033347;28;20207;-76
2023/09/27 05:32:37;;;;;;;8.73;7.93;;;;;;;13.29;83.19;101436.91;5033659;28;20594;-76
2023/09/27 05:35:07;;;;;;;8.90;8.00;;;;;;;13.22;83.97;101443.91;5033627;28;20649;-76
2023/09/27 05:37:37;;;;;;;12.53;8.40;;;;;;;13.21;83.70;101450.31;5034776;28;20211;-76
2023/09/27 05:40:09;;;;;;;12.23;8.50;;;;;;;13.21;83.45;101455.69;5033944;28;20241;-76
2023/09/27 05:42:38;;;;;;;9.50;8.60;;;;;;;13.20;83.65;101456.69;5033833;28;20205;-76
2023/09/27 05:45:10;;;;;;;9.37;8.27;;;;;;;13.24;83.50;101449.16;5033865;28;20230;-76
2023/09/27 05:47:39;;;;;;;9.03;8.13;;;;;;;13.29;82.66;101453.03;5033917;28;20270;-76
2023/09/27 05:50:09;;;;;;;9.20;8.30;;;;;;;13.23;83.46;101451.00;5033790;28;20209;-76
2023/09/27 05:52:43;;;;;;;11.23;8.43;;;;;;;13.19;83.86;101444.25;5033812;28;20206;-76
2023/09/27 05:55:11;;;;;;;9.53;8.57;;;;;;;13.19;84.05;101442.41;5033989;28;20195;-76
2023/09/27 05:57:40;;;;;;;9.00;8.20;;;;;;;13.15;84.81;101435.66;5033647;28;20234;-76
2023/09/27 06:00:14;;;;;;;12.60;9.40;;;;;;;13.13;85.37;101439.50;5033894;28;20261;-76
2023/09/27 06:02:43;;;;;;;9.70;8.80;;;;;;;13.13;85.73;101428.75;5033288;28;20664;-76
2023/09/27 06:05:12;;;;;;;12.27;8.50;;;;;;;13.15;85.34;101429.47;5033692;28;20217;-76
2023/09/27 06:07:43;;;;;;;11.53;8.07;;;;;;;13.19;84.71;101436.19;5033586;28;20261;-75
2023/09/27 06:10:11;;;;;;;8.83;7.93;;;;;;;13.23;84.41;101444.78;5033388;28;20211;-76
2023/09/27 06:12:40;;;;;;;10.97;9.10;;;;;;;13.19;85.28;101446.94;5033535;28;20238;-76
2023/09/27 06:15:12;;;;;;;11.30;9.60;;;;;;;13.20;85.15;101454.84;5033540;28;20313;-76
2023/09/27 06:17:42;;;;;;;10.57;9.23;;;;;;;13.25;85.89;101453.53;5033590;28;20190;-74
2023/09/27 06:20:12;;;;;;;12.40;9.93;;;;;;;13.25;85.52;101446.31;5034653;28;20206;-74
2023/09/27 06:22:44;;;;;;;11.63;9.17;;;;;;;13.27;85.69;101444.31;5033092;28;20289;-76
2023/09/27 06:25:12;;;;;;;12.30;9.77;;;;;;;13.28;85.59;101446.00;5033091;28;20541;-76
2023/09/27 06:27:43;;;;;;;15.53;9.67;;;;;;;13.31;86.25;101445.66;5033354;28;20249;-76
2023/09/27 06:30:12;;;;;;;16.43;10.93;;;;;;;13.33;87.42;101440.97;5033321;28;20210;-76
2023/09/27 06:32:41;;;;;;;13.23;11.77;;;;;;;13.34;88.25;101445.34;5033299;28;20256;-76
2023/09/27 06:35:14;;;;;;;16.77;10.27;;;;;;;13.35;88.36;101436.28;5033147;28;20250;-76
2023/09/27 06:37:48;;;;;;;14.87;10.57;;;;;;;13.37;88.61;101436.94;5033172;28;20222;-76
2023/09/27 06:40:22;;;;;;;13.30;10.20;;;;;;;13.37;89.36;101428.88;5033263;28;20194;-76
2023/09/27 06:42:50;;;;;;;14.60;10.90;;;;;;;13.40;90.02;101428.56;5035791;28;20244;-76
2023/09/27 06:45:19;;;;;;;15.63;10.97;;;;;;;13.43;90.26;101422.00;5037050;28;20309;-76
2023/09/27 06:47:48;;;;;;;11.70;10.50;;;;;;;13.45;90.45;101425.38;5037043;28;20618;-76
2023/09/27 06:50:19;;;;;;;12.83;11.47;;;;;;;13.50;91.26;101414.97;5037035;28;20218;-76
2023/09/27 06:52:49;;;;;;;13.47;11.47;;;;;;;13.52;92.01;101410.28;5036611;28;20662;-76
2023/09/27 06:55:22;;;;;;;16.57;12.50;;;;;;;13.57;92.58;101413.31;5037019;28;20191;-77
2023/09/27 06:57:52;;;;;;;13.07;11.73;;;;;;;13.60;92.89;101412.97;5037727;28;20257;-77
2023/09/27 07:00:24;;;;;;;14.70;12.40;;;;;;;13.64;93.45;101414.34;5036485;28;20625;-77
2023/09/27 07:02:53;;;;;;;13.10;11.70;;;;;;;13.67;93.14;101417.56;5036495;28;20597;-77
2023/09/27 07:05:22;;;;;;;16.13;12.03;;;;;;;13.73;93.32;101415.22;5036415;28;20697;-77
2023/09/27 07:07:54;;;;;;;14.50;10.13;;;;;;;13.77;93.84;101424.66;5036748;28;20206;-77
2023/09/27 07:10:24;;;;;;;12.70;10.87;;;;;;;13.80;93.73;101430.53;5036705;28;20199;-77
2023/09/27 07:12:53;;;;;;;13.60;10.73;;;;;;;13.84;94.11;101426.50;5036579;28;20206;-77
2023/09/27 07:15:22;;;;;;;11.30;9.87;;;;;;;13.89;93.82;101434.09;5036578;28;20621;-77
2023/09/27 07:17:50;;;;;;;12.10;10.73;;;;;;;13.94;94.69;101432.56;5036229;28;20579;-77
2023/09/27 07:20:26;;;;;;;12.60;10.27;;;;;;;13.99;94.49;101430.25;5036179;28;20218;-77
2023/09/27 07:22:56;;;;;;;12.60;9.97;;;;;;;14.05;94.99;101429.59;5036275;28;20191;-77
2023/09/27 07:25:28;;;;;;;11.70;10.47;;;;;;;14.10;94.61;101432.63;5036390;28;20207;-77
2023/09/27 07:27:57;;;;;;;11.93;10.10;;;;;;;14.17;95.11;101443.56;5036130;28;20195;-77
2023/09/27 07:30:25;;;;;;;13.87;10.03;;;;;;;14.22;95.09;101436.66;5036361;28;20242;-77
2023/09/27 07:32:55;;;;;;;10.57;9.57;;;;;;;14.30;94.34;101433.16;5035885;28;20775;-77
2023/09/27 07:35:28;;;;;;;9.83;8.93;;;;;;;14.44;93.17;101435.22;5036330;28;20199;-77
2023/09/27 07:38:00;;;;;;;11.50;8.80;;;;;;;14.47;94.01;101439.41;5036286;28;20275;-76
2023/09/27 07:40:29;;;;;;;9.63;8.80;;;;;;;14.56;93.40;101441.94;5036166;28;20199;-75
2023/09/27 07:42:58;;;;;;;10.53;9.53;;;;;;;14.64;95.28;101450.00;5035967;28;20202;-75
2023/09/27 07:45:30;;;;;;;10.37;9.37;;;;;;;14.73;93.19;101450.03;5035947;28;20231;-75
2023/09/27 07:47:59;;;;;;;10.60;9.03;;;;;;;14.83;92.98;101453.38;5036028;28;20201;-75
2023/09/27 07:50:31;;;;;;;9.97;8.13;;;;;;;14.95;91.32;101449.31;5035952;28;20297;-75
2023/09/27 07:53:03;;;;;;;10.50;7.47;;;;;;;15.08;90.08;101461.25;5035109;28;20192;-75
2023/09/27 07:55:33;;;;;;;9.07;7.97;;;;;;;15.18;90.42;101456.50;5035672;28;20217;-75
2023/09/27 07:58:03;;;;;;;8.73;7.70;;;;;;;15.42;89.30;101463.66;5035978;28;20214;-75
2023/09/27 08:00:33;;;;;;;11.90;8.27;;;;;;;15.49;87.80;101467.38;5035431;28;20209;-75
2023/09/27 08:03:02;;;;;;;9.23;7.13;;;;;;;15.56;90.65;101468.38;5035529;28;20211;-74
2023/09/27 08:05:31;;;;;;;9.13;7.83;;;;;;;15.70;88.00;101466.78;5035189;28;20697;-75
2023/09/27 08:08:01;;;;;;;8.20;7.40;;;;;;;15.81;88.96;101463.72;5035558;28;20291;-76
2023/09/27 08:10:30;;;;;;;9.20;6.30;;;;;;;15.89;87.84;101458.25;5035513;28;20207;-76
2023/09/27 08:13:00;;;;;;;8.53;6.90;;;;;;;16.00;86.39;101454.28;5035313;28;20286;-75
2023/09/27 08:15:28;;;;;;;10.70;7.63;;;;;;;15.96;87.86;101450.28;5035405;28;20203;-76
2023/09/27 08:17:57;;;;;;;10.17;7.13;;;;;;;15.99;88.34;101449.94;5035058;28;20265;-76
2023/09/27 08:20:26;;;;;;;9.53;7.37;;;;;;;16.03;87.20;101456.63;5035327;28;20234;-76
2023/09/27 08:22:55;;;;;;;8.00;7.20;;;;;;;16.11;86.16;101462.84;5035057;28;20229;-76
2023/09/27 08:25:25;;;;;;;9.70;7.73;;;;;;;16.24;85.92;101454.13;5035178;28;20211;-76
2023/09/27 08:27:54;;;;;;;12.23;8.03;;;;;;;16.27;86.24;101453.78;5034927;28;20369;-76
2023/09/27 08:30:22;;;;;;;13.07;8.40;;;;;;;16.41;85.17;101450.28;5035161;28;20612;-76
2023/09/27 08:32:52;;;;;;;14.53;8.93;;;;;;;16.43;85.28;101447.41;5034993;28;20261;-76
2023/09/27 08:35:20;;;;;;;9.67;8.73;;;;;;;16.53;83.87;101443.44;5035044;28;20584;-77
2023/09/27 08:37:49;;;;;;;9.80;8.90;;;;;;;16.79;81.08;101447.63;5034956;28;20210;-77
2023/09/27 08:40:19;;;;;;;9.10;8.20;;;;;;;16.79;82.40;101447.63;5034973;28;20207;-76
2023/09/27 08:42:52;;;;;;;9.77;8.77;;;;;;;16.95;81.53;101439.38;5034806;28;20298;-76
2023/09/27 08:45:23;;;;;;;9.93;8.80;;;;;;;16.92;82.19;101445.97;5034496;28;20680;-76
2023/09/27 08:47:52;;;;;;;8.23;7.43;;;;;;;16.95;83.48;101442.09;5034833;28;20271;-76
2023/09/27 08:50:21;;;;;;;9.47;8.50;;;;;;;17.00;84.08;101447.75;5034740;28;20360;-76
2023/09/27 08:52:51;;;;;;;9.37;8.00;;;;;;;17.08;84.76;101447.69;5034308;28;20704;-76
2023/09/27 08:55:21;;;;;;;10.03;9.03;;;;;;;17.13;83.39;101445.25;5035497;28;20628;-76
2023/09/27 08:57:51;;;;;;;7.87;7.00;;;;;;;17.26;83.13;101450.84;5034263;28;20216;-76
2023/09/27 09:00:23;;;;;;;9.00;8.13;;;;;;;17.61;80.31;101460.94;5034554;28;20663;-76
2023/09/27 09:02:57;;;;;;;8.67;7.77;;;;;;;17.70;78.41;101456.28;5034466;28;20199;-76
2023/09/27 09:05:29;;;;;;;9.07;7.30;;;;;;;17.67;80.09;101454.78;5034343;28;20211;-76
2023/09/27 09:08:00;;;;;;;9.33;6.83;;;;;;;17.71;79.48;101453.38;5034473;28;20241;-76
2023/09/27 09:10:29;;;;;;;8.47;5.93;;;;;;;17.79;79.30;101452.44;5034354;28;20246;-76
2023/09/27 09:13:00;;;;;;;7.23;5.00;;;;;;;17.98;77.34;101451.81;5034269;28;20253;-76
2023/09/27 09:15:35;;;;;;;10.73;5.40;;;;;;;18.10;77.45;101454.88;5034326;28;20191;-76
2023/09/27 09:18:08;;;;;;;8.67;4.97;;;;;;;18.09;77.96;101456.72;5034265;28;20195;-76
2023/09/27 09:20:50;;;;;;;6.57;4.90;;;;;;;18.08;77.70;101462.38;5034249;28;20195;-76
2023/09/27 09:23:30;;;;;;;8.53;4.73;;;;;;;18.17;78.35;101459.34;5033904;28;20288;-76
2023/09/27 09:25:59;;;;;;;8.20;5.00;;;;;;;18.26;76.59;101460.03;5034024;28;20227;-76
2023/09/27 09:28:29;;;;;;;6.30;4.33;;;;;;;18.51;73.12;101453.25;5033735;28;20685;-76
2023/09/27 09:30:58;;;;;;;4.93;3.87;;;;;;;18.56;73.92;101452.66;5034065;28;20187;-76
2023/09/27 09:33:28;;;;;;;6.60;4.70;;;;;;;18.69;74.13;101450.91;5033590;28;20230;-76
2023/09/27 09:35:57;;;;;;;5.60;4.57;;;;;;;18.84;71.33;101452.66;5033684;28;20564;-76
2023/09/27 09:38:29;;;;;;;5.43;4.33;;;;;;;18.93;71.74;101446.06;5033885;28;20207;-76
2023/09/27 09:40:58;;;;;;;5.33;4.40;;;;;;;18.96;72.93;101461.94;5033879;28;20282;-76
2023/09/27 09:43:33;;;;;;;5.73;4.17;;;;;;;19.01;71.79;101470.31;5033441;28;20636;-76
2023/09/27 09:46:03;;;;;;;5.80;4.63;;;;;;;19.07;72.36;101474.97;5033798;28;20246;-76
2023/09/27 09:48:34;;;;;;;7.73;5.30;;;;;;;19.24;71.92;101460.06;5033770;28;20248;-76
2023/09/27 09:51:06;;;;;;;8.53;6.20;;;;;;;19.24;72.89;101460.91;5033707;28;20286;-76
2023/09/27 09:53:38;;;;;;;6.60;5.30;;;;;;;19.56;70.02;101474.88;5033629;28;20230;-76
2023/09/27 09:56:08;;;;;;;8.17;5.47;;;;;;;19.81;68.99;101472.50;5033682;28;20274;-76
2023/09/27 09:59:03;;;;;;;6.23;4.60;;;;;;;19.89;69.59;101475.03;5033747;28;20207;-76
2023/09/27 10:01:36;;;;;;;8.63;4.43;;;;;;;20.07;69.23;101472.56;5033264;28;20637;-76
2023/09/27 10:04:07;;;;;;;6.43;4.80;;;;;;;20.19;68.64;101460.91;5033493;28;20226;-76
2023/09/27 10:06:38;;;;;;;7.00;4.53;;;;;;;20.13;69.63;101453.59;5033491;28;20222;-76
2023/09/27 10:09:28;;;;;;;5.77;4.17;;;;;;;20.16;68.73;101455.91;5033554;28;20202;-76
2023/09/27 10:11:58;;;;;;;4.33;3.93;;;;;;;20.23;68.85;101451.31;5033467;28;20282;-76
2023/09/27 10:14:29;;;;;;;6.30;4.17;;;;;;;20.41;67.47;101441.75;5033267;28;20233;-76
2023/09/27 10:16:57;;;;;;;5.47;4.23;;;;;;;20.55;67.29;101422.47;5032896;28;20198;-76
2023/09/27 10:19:27;;;;;;;4.80;4.33;;;;;;;20.72;65.45;101423.75;5033323;28;20289;-76
2023/09/27 10:22:05;;;;;;;5.17;4.20;;;;;;;20.96;64.97;101410.53;5033021;28;20206;-76
2023/09/27 10:24:35;;;;;;;7.03;4.40;;;;;;;21.03;65.25;101420.34;5032926;28;20675;-76
2023/09/27 10:27:04;;;;;;;7.27;4.73;;;;;;;21.16;65.42;101411.38;5033177;28;20237;-76
2023/09/27 10:29:57;;;;;;;5.70;5.20;;;;;;;21.31;64.54;101405.66;5033278;28;20245;-76
2023/09/27 10:32:27;;;;;;;10.10;4.90;;;;;;;21.41;65.04;101404.16;5033313;28;20191;-76
2023/09/27 10:35:15;;;;;;;8.47;4.57;;;;;;;21.54;64.21;101400.56;5033371;28;20258;-76
2023/09/27 10:38:04;;;;;;;13.33;5.57;;;;;;;21.66;64.44;101391.47;5033217;28;20227;-76
2023/09/27 10:40:42;;;;;;;9.83;4.90;;;;;;;21.74;64.69;101384.94;5033211;28;20245;-76
2023/09/27 10:43:11;;;;;;;7.53;5.20;;;;;;;21.77;65.14;101376.34;5032812;28;20230;-76
2023/09/27 10:45:41;;;;;;;8.13;4.37;;;;;;;21.90;63.93;101378.16;5033025;28;20304;-76
2023/09/27 10:48:18;;;;;;;6.70;3.87;;;;;;;21.94;63.05;101368.50;5033073;28;20245;-76
2023/09/27 10:50:52;;;;;;;7.50;3.87;;;;;;;21.97;63.84;101366.16;5033031;28;20191;-76
2023/09/27 10:53:21;;;;;;;6.97;3.27;;;;;;;21.92;65.13;101365.97;5032954;28;20322;-76
2023/09/27 10:55:50;;;;;;;8.10;3.93;;;;;;;21.92;63.81;101370.63;5032660;28;20298;-76
2023/09/27 10:58:19;;;;;;;11.53;4.50;;;;;;;21.98;63.60;101369.75;5033022;28;20206;-76
2023/09/27 11:00:54;;;;;;;7.23;3.83;;;;;;;22.01;63.77;101370.13;5032960;28;20230;-75
2023/09/27 11:03:24;;;;;;;7.10;4.00;;;;;;;22.05;64.10;101365.06;5032935;28;20226;-76
2023/09/27 11:05:53;;;;;;;5.37;4.23;;;;;;;22.11;64.67;101365.03;5032868;28;20226;-75
2023/09/27 11:08:23;;;;;;;5.30;3.90;;;;;;;22.16;63.14;101358.88;5032877;28;20207;-75
2023/09/27 11:10:55;;;;;;;7.47;4.13;;;;;;;22.20;65.08;101358.22;5032607;28;20628;-75
2023/09/27 11:13:25;;;;;;;3.50;3.20;;;;;;;22.22;64.89;101355.31;5032833;28;20313;-76
2023/09/27 11:16:06;;;;;;;4.33;3.60;;;;;;;22.23;65.33;101356.94;5032903;28;20203;-75
2023/09/27 11:18:35;;;;;;;5.33;3.50;;;;;;;22.24;62.88;101362.19;5032626;28;20289;-75
2023/09/27 11:21:09;;;;;;;6.53;3.67;;;;;;;22.22;64.09;101355.31;5032883;28;20257;-75
2023/09/27 11:23:52;;;;;;;3.93;3.30;;;;;;;22.22;64.95;101349.84;5032424;28;20716;-75
2023/09/27 11:26:21;;;;;;;5.20;3.10;;;;;;;22.22;65.20;101349.84;5032501;28;20756;-75
2023/09/27 11:28:58;;;;;;;7.60;3.40;;;;;;;22.23;64.61;101349.59;5033748;28;20571;-75
2023/09/27 11:31:29;;;;;;;4.63;3.20;;;;;;;22.30;64.88;101351.44;5036149;28;20561;-75
2023/09/27 11:34:15;;;;;;;4.23;3.13;;;;;;;22.31;63.31;101343.03;5036330;28;20337;-75
2023/09/27 11:36:45;;;;;;;3.27;2.97;;;;;;;22.33;64.86;101340.91;5036291;28;20193;-75